createdAt,value
2023-05-06T00:04:57.811Z,112.76712
2023-05-06T00:09:59.143Z,115.11111
2023-05-06T00:15:00.539Z,117.03371
2023-05-06T00:20:01.846Z,123.06977
2023-05-06T00:25:03.204Z,125.71091
2023-05-06T00:30:04.427Z,122.03468
2023-05-06T00:35:05.833Z,119.49858
2023-05-06T00:40:07.413Z,116.54902
2023-05-06T00:45:08.890Z,117.03371
2023-05-06T00:50:10.281Z,113.23077
2023-05-06T00:55:11.697Z,110.03774
2023-05-06T01:00:13.043Z,114.63712
2023-05-06T01:05:14.301Z,111.3913
2023-05-06T01:10:15.856Z,111.3913
2023-05-06T01:15:17.137Z,107.39523
2023-05-06T01:20:18.408Z,109.14745
2023-05-06T01:25:19.706Z,107.82979
2023-05-06T01:30:21.035Z,110.93767
2023-05-06T01:35:22.282Z,107.82979
2023-05-06T01:40:23.542Z,105.67979
2023-05-06T01:45:24.936Z,117.03371
2023-05-06T01:50:26.193Z,111.84741
2023-05-06T01:55:27.524Z,109.14745
2023-05-06T02:00:28.745Z,109.5914
2023-05-06T02:05:29.982Z,110.93767
2023-05-06T02:10:31.227Z,107.39523
2023-05-06T02:15:32.668Z,112.30601
2023-05-06T02:20:34.018Z,110.93767
2023-05-06T02:25:35.433Z,112.30601
2023-05-06T02:30:36.786Z,111.84741
2023-05-06T02:35:38.113Z,112.76712
2023-05-06T02:40:39.484Z,117.03371
2023-05-06T02:45:40.773Z,119
2023-05-06T02:50:42.095Z,122.03468
2023-05-06T02:55:43.695Z,125.71091
2023-05-06T03:00:44.932Z,130.66667
2023-05-06T03:05:46.337Z,128.98498
2023-05-06T03:10:47.796Z,131.23404
2023-05-06T03:15:49.020Z,125.71091
2023-05-06T03:20:50.270Z,119.49858
2023-05-06T03:25:51.952Z,123.06977
2023-05-06T03:30:53.341Z,115.58774
2023-05-06T03:35:54.608Z,115.11111
2023-05-06T03:40:55.879Z,116.06704
2023-05-06T03:45:57.148Z,115.58774
2023-05-06T03:50:58.507Z,121.52161
2023-05-06T03:55:59.807Z,120
2023-05-06T04:01:01.170Z,119.49858
2023-05-06T04:06:02.429Z,114.63712
2023-05-06T04:11:03.804Z,113.23077
2023-05-06T04:16:05.146Z,108.70588
2023-05-06T04:21:06.476Z,110.03774
2023-05-06T04:26:07.751Z,109.14745
2023-05-06T04:31:09.029Z,110.93767
2023-05-06T04:36:10.320Z,111.3913
2023-05-06T04:41:11.914Z,114.63712
2023-05-06T04:46:13.223Z,110.93767
2023-05-06T04:51:14.509Z,110.93767
2023-05-06T04:56:15.809Z,107.82979
2023-05-06T05:01:17.086Z,110.03774
2023-05-06T05:06:18.376Z,101.14286
2023-05-06T05:11:19.784Z,104.83551
2023-05-06T05:16:21.091Z,101.14286
2023-05-06T05:21:22.526Z,99.55556
2023-05-06T05:26:23.810Z,100.34518
2023-05-06T05:31:25.089Z,99.55556
2023-05-06T05:36:26.387Z,99.16373
2023-05-06T05:41:27.708Z,104.41667
2023-05-06T05:46:29.008Z,105.25654
2023-05-06T05:51:30.551Z,108.70588
2023-05-06T05:56:31.986Z,106.10526
2023-05-06T06:01:33.277Z,102.76289
2023-05-06T06:06:34.535Z,99.94937
2023-05-06T06:11:36.101Z,106.53298
2023-05-06T06:16:37.531Z,109.5914
2023-05-06T06:21:38.859Z,105.67979
2023-05-06T06:26:40.178Z,112.76712
2023-05-06T06:31:41.468Z,114.63712
2023-05-06T06:36:42.745Z,107.82979
2023-05-06T06:41:44.100Z,109.14745
2023-05-06T06:46:45.526Z,108.70588
2023-05-06T06:51:46.839Z,111.3913
2023-05-06T06:56:48.266Z,105.67979
2023-05-06T07:01:49.551Z,109.14745
2023-05-06T07:06:50.827Z,105.67979
2023-05-06T07:11:52.129Z,109.14745
2023-05-06T07:16:53.627Z,118.0113
2023-05-06T07:21:55.111Z,116.54902
2023-05-06T07:26:56.402Z,114.16575
2023-05-06T07:31:57.798Z,119.49858
2023-05-06T07:36:59.060Z,110.03774
2023-05-06T07:42:00.331Z,123.06977
2023-05-06T07:47:02.034Z,128.43114
2023-05-06T07:52:03.720Z,140.17834
2023-05-06T07:57:05.061Z,154.9589
2023-05-06T08:02:06.405Z,172.14815
2023-05-06T08:07:07.737Z,182.75969
2023-05-06T08:12:09.038Z,210.66667
2023-05-06T08:17:10.298Z,216.56637
2023-05-06T08:22:11.580Z,222.73303
2023-05-06T08:27:12.848Z,243.02913
2023-05-06T08:32:14.149Z,250.46766
2023-05-06T08:37:15.474Z,244.4878
2023-05-06T08:42:16.807Z,233.20188
2023-05-06T08:47:18.049Z,208.37768
2023-05-06T08:52:19.304Z,231.85047
2023-05-06T08:57:20.597Z,187.47826
2023-05-06T09:02:21.943Z,222.73303
2023-05-06T09:07:23.518Z,264.83333
2023-05-06T09:12:24.926Z,0
2023-05-06T09:17:26.364Z,261.52577
2023-05-06T09:22:27.883Z,241.58454
2023-05-06T09:27:29.206Z,194.4065
2023-05-06T09:32:30.531Z,196.45902
2023-05-06T09:37:31.855Z,160.90141
2023-05-06T09:42:33.143Z,151.40741
2023-05-06T09:47:34.594Z,171.30627
2023-05-06T09:52:35.973Z,178.22053
2023-05-06T09:57:37.500Z,196.45902
2023-05-06T10:02:39.043Z,168
2023-05-06T10:07:40.578Z,173.85075
2023-05-06T10:12:41.868Z,198.54545
2023-05-06T10:17:43.215Z,188.44444
2023-05-06T10:22:44.754Z,170.47059
2023-05-06T10:27:46.048Z,178.22053
2023-05-06T10:32:47.656Z,164
2023-05-06T10:37:48.980Z,152.81356
2023-05-06T10:42:50.270Z,154.23891
2023-05-06T10:47:51.828Z,147.97351
2023-05-06T10:52:53.237Z,144
2023-05-06T10:57:54.552Z,143.35275
2023-05-06T11:02:56.244Z,138.32177
2023-05-06T11:07:57.623Z,150.02007
2023-05-06T11:12:58.920Z,154.9589
2023-05-06T11:18:00.282Z,150.02007
2023-05-06T11:23:01.577Z,159.38462
2023-05-06T11:28:02.822Z,160.14035
2023-05-06T11:33:05.531Z,152.81356
2023-05-06T11:38:07.151Z,149.33333
2023-05-06T11:43:08.496Z,150.71141
2023-05-06T11:48:09.784Z,168
2023-05-06T11:53:11.398Z,181.83784
2023-05-06T11:58:13.290Z,187.47826
2023-05-06T12:03:14.694Z,184.625
2023-05-06T12:08:26.803Z,188.44444
2023-05-06T12:13:29.870Z,179.1145
2023-05-06T12:18:31.489Z,191.38956
2023-05-06T12:23:33.212Z,182.75969
2023-05-06T12:28:35.293Z,183.68872
2023-05-06T12:33:36.963Z,180.01533
2023-05-06T12:38:38.678Z,179.1145
2023-05-06T12:43:40.203Z,182.75969
2023-05-06T12:48:41.524Z,182.75969
2023-05-06T12:53:42.846Z,172.14815
2023-05-06T12:58:44.410Z,180.01533
2023-05-06T13:03:45.864Z,177.33333
2023-05-06T13:08:47.566Z,160.14035
2023-05-06T13:13:49.270Z,151.40741
2023-05-06T13:18:50.987Z,132.3792
2023-05-06T13:23:52.601Z,130.66667
2023-05-06T13:28:54.247Z,128.98498
2023-05-06T13:33:55.920Z,125.71091
2023-05-06T13:38:57.540Z,118.50425
2023-05-06T13:43:59.170Z,130.66667
2023-05-06T13:49:00.852Z,128.98498
2023-05-06T13:54:02.184Z,132.3792
2023-05-06T13:59:03.635Z,135.90031
2023-05-06T14:04:04.983Z,145.30719
2023-05-06T14:09:06.284Z,142.70968
2023-05-06T14:14:07.622Z,112.76712
2023-05-06T14:19:08.968Z,105.67979
2023-05-06T14:24:10.283Z,105.67979
2023-05-06T14:29:11.858Z,117.52113
2023-05-06T14:34:13.152Z,111.3913
2023-05-06T14:39:14.490Z,125.17647
2023-05-06T14:44:15.993Z,120.5043
2023-05-06T14:49:17.609Z,124.64516
2023-05-06T14:54:19.025Z,116.54902
2023-05-06T14:59:20.505Z,124.11696
2023-05-06T15:04:21.918Z,110.03774
2023-05-06T15:09:23.525Z,113.23077
2023-05-06T15:14:25.156Z,113.69697
2023-05-06T15:19:26.784Z,113.23077
2023-05-06T15:24:28.410Z,111.3913
2023-05-06T15:29:29.710Z,106.96296
2023-05-06T15:34:31.077Z,102.76289
2023-05-06T15:39:32.684Z,104.83551
2023-05-06T15:44:34.404Z,102.76289
2023-05-06T15:49:51.412Z,107.39523
2023-05-06T15:54:58.842Z,104.83551
2023-05-06T16:00:01.434Z,107.39523
2023-05-06T16:05:02.656Z,108.70588
2023-05-06T16:10:03.969Z,111.3913
2023-05-06T16:15:05.468Z,106.10526
2023-05-06T16:20:06.836Z,101.54476
2023-05-06T16:25:08.256Z,99.55556
2023-05-06T16:30:09.779Z,110.93767
2023-05-06T16:35:11.520Z,105.25654
2023-05-06T16:40:13.030Z,105.67979
2023-05-06T16:45:14.456Z,101.94872
2023-05-06T16:50:15.850Z,100.34518
2023-05-06T16:55:17.106Z,98.38596
2023-05-06T17:00:18.537Z,98.38596
2023-05-06T17:05:22.012Z,101.94872
2023-05-06T17:10:23.579Z,98.77387
2023-05-06T17:15:24.900Z,95.72414
2023-05-06T17:20:26.177Z,96.47525
2023-05-06T17:25:27.755Z,98.77387
2023-05-06T17:30:29.316Z,99.16373
2023-05-06T17:35:30.597Z,91.72182
2023-05-06T17:40:32.029Z,96.8536
2023-05-06T17:45:33.536Z,99.55556
2023-05-06T17:50:35.102Z,101.54476
2023-05-06T17:55:36.749Z,100.34518
2023-05-06T18:00:38.345Z,101.54476
2023-05-06T18:05:40.031Z,100.743
2023-05-06T18:10:41.672Z,93.51456
2023-05-06T18:15:43.392Z,85.93548
2023-05-06T18:20:45.138Z,84.63927
2023-05-06T18:25:46.732Z,83.68254
2023-05-06T18:30:48.322Z,86.59259
2023-05-06T18:35:49.875Z,95.35135
2023-05-06T18:40:51.605Z,99.94937
2023-05-06T18:45:53.356Z,101.14286
2023-05-06T18:50:55.217Z,96.8536
2023-05-06T18:55:56.828Z,94.98039
2023-05-06T19:00:58.764Z,98.38596
2023-05-06T19:06:00.378Z,97.61596
2023-05-06T19:11:02.064Z,98
2023-05-06T19:16:03.583Z,98.38596
2023-05-06T19:21:04.870Z,100.743
2023-05-06T19:26:06.597Z,100.34518
2023-05-06T19:31:08.487Z,96.47525
2023-05-06T19:36:09.788Z,98.77387
2023-05-06T19:41:11.057Z,96.47525
2023-05-06T19:46:12.607Z,92.79227
2023-05-06T19:51:13.947Z,89.97156
2023-05-06T19:56:15.418Z,88.2623
2023-05-06T20:01:17.037Z,87.92523
2023-05-06T20:06:18.324Z,92.79227
2023-05-06T20:11:19.590Z,96.47525
2023-05-06T20:16:21.389Z,102.76289
2023-05-06T20:21:22.675Z,103.58549
2023-05-06T20:26:25.042Z,102.35476
2023-05-06T20:31:26.490Z,99.94937
2023-05-06T20:36:28.816Z,99.16373
2023-05-06T20:41:30.092Z,95.35135
2023-05-06T20:46:31.568Z,94.98039
2023-05-06T20:51:32.914Z,95.35135
2023-05-06T20:56:34.198Z,96.09877
2023-05-06T21:01:35.548Z,96.09877
2023-05-06T21:06:37.007Z,96.09877
2023-05-06T21:11:38.331Z,93.87835
2023-05-06T21:16:39.781Z,91.36842
2023-05-06T21:21:41.252Z,89.97156
2023-05-06T21:26:42.519Z,87.58974
2023-05-06T21:31:43.841Z,86.26328
2023-05-06T21:36:45.125Z,87.25581
2023-05-06T21:41:46.560Z,85.93548
2023-05-06T21:46:48.008Z,87.92523
2023-05-06T21:51:49.408Z,91.01671
2023-05-06T21:56:50.873Z,92.79227
2023-05-06T22:01:52.344Z,93.87835
2023-05-06T22:06:53.744Z,93.51456
2023-05-06T22:11:55.017Z,95.35135
2023-05-06T22:16:56.807Z,99.55556
2023-05-06T22:21:58.118Z,105.25654
2023-05-06T22:26:59.403Z,105.67979
2023-05-06T22:32:00.878Z,106.53298
2023-05-06T22:37:02.406Z,106.53298
2023-05-06T22:42:03.996Z,108.70588
2023-05-06T22:47:05.252Z,110.48649
2023-05-06T22:52:06.480Z,111.84741
2023-05-06T22:57:07.841Z,107.82979
2023-05-06T23:02:09.179Z,112.30601
2023-05-06T23:07:10.475Z,113.23077
2023-05-06T23:12:11.814Z,109.14745
2023-05-06T23:17:13.138Z,117.03371
2023-05-06T23:22:14.514Z,119.49858
2023-05-06T23:27:16.031Z,122.55072
2023-05-06T23:32:17.268Z,123.06977
2023-05-06T23:37:18.566Z,122.03468
2023-05-06T23:42:19.894Z,120.5043
2023-05-06T23:47:21.674Z,121.01149
2023-05-06T23:52:23.081Z,122.55072
2023-05-06T23:57:24.456Z,119
